sensor_id;sensor_type;location;lat;lon;timestamp;P1;durP1;ratioP1;P2;durP2;ratioP2
27305;SDS011;14792;50.886;6.468;2023-10-31T00:01:30;7.70;;;6.87;;
27305;SDS011;14792;50.886;6.468;2023-10-31T00:04:32;8.35;;;6.20;;
27305;SDS011;14792;50.886;6.468;2023-10-31T00:07:33;5.95;;;5.00;;
27305;SDS011;14792;50.886;6.468;2023-10-31T00:10:35;7.08;;;4.50;;
27305;SDS011;14792;50.886;6.468;2023-10-31T00:13:37;7.22;;;3.98;;
27305;SDS011;14792;50.886;6.468;2023-10-31T00:16:38;5.67;;;3.98;;
27305;SDS011;14792;50.886;6.468;2023-10-31T00:19:40;6.40;;;3.87;;
27305;SDS011;14792;50.886;6.468;2023-10-31T00:22:41;7.15;;;3.50;;
27305;SDS011;14792;50.886;6.468;2023-10-31T00:25:43;7.35;;;3.00;;
27305;SDS011;14792;50.886;6.468;2023-10-31T00:28:45;4.15;;;2.85;;
27305;SDS011;14792;50.886;6.468;2023-10-31T00:31:46;7.15;;;2.98;;
27305;SDS011;14792;50.886;6.468;2023-10-31T00:34:48;9.95;;;3.50;;
27305;SDS011;14792;50.886;6.468;2023-10-31T00:37:49;5.95;;;3.20;;
27305;SDS011;14792;50.886;6.468;2023-10-31T00:40:51;8.13;;;3.60;;
27305;SDS011;14792;50.886;6.468;2023-10-31T00:43:52;8.55;;;3.20;;
27305;SDS011;14792;50.886;6.468;2023-10-31T00:46:54;5.90;;;2.58;;
27305;SDS011;14792;50.886;6.468;2023-10-31T00:49:56;7.70;;;2.80;;
27305;SDS011;14792;50.886;6.468;2023-10-31T00:52:57;6.53;;;2.77;;
27305;SDS011;14792;50.886;6.468;2023-10-31T00:55:59;6.55;;;2.40;;
27305;SDS011;14792;50.886;6.468;2023-10-31T00:59:00;7.20;;;2.10;;
27305;SDS011;14792;50.886;6.468;2023-10-31T01:02:02;5.72;;;2.00;;
27305;SDS011;14792;50.886;6.468;2023-10-31T01:05:04;5.50;;;1.90;;
27305;SDS011;14792;50.886;6.468;2023-10-31T01:08:05;4.72;;;1.90;;
27305;SDS011;14792;50.886;6.468;2023-10-31T01:11:07;7.40;;;1.90;;
27305;SDS011;14792;50.886;6.468;2023-10-31T01:14:08;5.95;;;1.80;;
27305;SDS011;14792;50.886;6.468;2023-10-31T01:17:10;6.00;;;1.60;;
27305;SDS011;14792;50.886;6.468;2023-10-31T01:20:11;5.67;;;1.95;;
27305;SDS011;14792;50.886;6.468;2023-10-31T01:23:13;5.35;;;1.60;;
27305;SDS011;14792;50.886;6.468;2023-10-31T01:26:15;6.95;;;2.22;;
27305;SDS011;14792;50.886;6.468;2023-10-31T01:29:17;7.37;;;1.92;;
27305;SDS011;14792;50.886;6.468;2023-10-31T01:32:19;5.60;;;2.10;;
27305;SDS011;14792;50.886;6.468;2023-10-31T01:35:20;5.58;;;2.45;;
27305;SDS011;14792;50.886;6.468;2023-10-31T01:38:22;5.80;;;2.25;;
27305;SDS011;14792;50.886;6.468;2023-10-31T01:41:23;4.28;;;2.37;;
27305;SDS011;14792;50.886;6.468;2023-10-31T01:44:25;4.67;;;2.62;;
27305;SDS011;14792;50.886;6.468;2023-10-31T01:47:27;11.08;;;2.77;;
27305;SDS011;14792;50.886;6.468;2023-10-31T01:50:28;6.35;;;3.05;;
27305;SDS011;14792;50.886;6.468;2023-10-31T01:53:31;7.20;;;3.62;;
27305;SDS011;14792;50.886;6.468;2023-10-31T01:56:31;10.93;;;3.35;;
27305;SDS011;14792;50.886;6.468;2023-10-31T01:59:33;5.03;;;2.90;;
27305;SDS011;14792;50.886;6.468;2023-10-31T02:02:35;6.42;;;3.27;;
27305;SDS011;14792;50.886;6.468;2023-10-31T02:05:36;9.88;;;3.00;;
27305;SDS011;14792;50.886;6.468;2023-10-31T02:08:38;10.53;;;3.00;;
27305;SDS011;14792;50.886;6.468;2023-10-31T02:11:39;8.70;;;3.60;;
27305;SDS011;14792;50.886;6.468;2023-10-31T02:14:41;7.10;;;3.60;;
27305;SDS011;14792;50.886;6.468;2023-10-31T02:17:43;10.28;;;3.87;;
27305;SDS011;14792;50.886;6.468;2023-10-31T02:20:44;6.35;;;3.47;;
27305;SDS011;14792;50.886;6.468;2023-10-31T02:23:58;7.10;;;3.02;;
27305;SDS011;14792;50.886;6.468;2023-10-31T02:27:02;9.03;;;3.52;;
27305;SDS011;14792;50.886;6.468;2023-10-31T02:30:03;4.62;;;2.55;;
27305;SDS011;14792;50.886;6.468;2023-10-31T02:33:05;5.78;;;2.62;;
27305;SDS011;14792;50.886;6.468;2023-10-31T02:36:07;5.78;;;2.70;;
27305;SDS011;14792;50.886;6.468;2023-10-31T02:39:08;6.85;;;2.58;;
27305;SDS011;14792;50.886;6.468;2023-10-31T02:42:10;5.12;;;2.77;;
27305;SDS011;14792;50.886;6.468;2023-10-31T02:45:11;3.83;;;2.10;;
27305;SDS011;14792;50.886;6.468;2023-10-31T02:48:13;5.08;;;2.33;;
27305;SDS011;14792;50.886;6.468;2023-10-31T02:51:15;6.72;;;2.60;;
27305;SDS011;14792;50.886;6.468;2023-10-31T02:54:16;4.37;;;2.10;;
27305;SDS011;14792;50.886;6.468;2023-10-31T02:57:18;4.25;;;2.20;;
27305;SDS011;14792;50.886;6.468;2023-10-31T03:00:19;4.97;;;2.33;;
27305;SDS011;14792;50.886;6.468;2023-10-31T03:03:21;6.25;;;2.30;;
27305;SDS011;14792;50.886;6.468;2023-10-31T03:06:23;6.85;;;2.50;;
27305;SDS011;14792;50.886;6.468;2023-10-31T03:09:24;10.05;;;2.27;;
27305;SDS011;14792;50.886;6.468;2023-10-31T03:12:26;5.12;;;2.65;;
27305;SDS011;14792;50.886;6.468;2023-10-31T03:15:27;3.95;;;2.00;;
27305;SDS011;14792;50.886;6.468;2023-10-31T03:18:29;4.20;;;1.95;;
27305;SDS011;14792;50.886;6.468;2023-10-31T03:21:31;6.85;;;2.30;;
27305;SDS011;14792;50.886;6.468;2023-10-31T03:24:32;2.77;;;1.80;;
27305;SDS011;14792;50.886;6.468;2023-10-31T03:27:34;2.80;;;1.95;;
27305;SDS011;14792;50.886;6.468;2023-10-31T03:30:35;4.47;;;2.20;;
27305;SDS011;14792;50.886;6.468;2023-10-31T03:33:37;4.12;;;2.20;;
27305;SDS011;14792;50.886;6.468;2023-10-31T03:36:38;6.15;;;2.37;;
27305;SDS011;14792;50.886;6.468;2023-10-31T03:39:40;4.53;;;2.00;;
27305;SDS011;14792;50.886;6.468;2023-10-31T03:42:42;9.45;;;1.75;;
27305;SDS011;14792;50.886;6.468;2023-10-31T03:45:43;5.08;;;1.98;;
27305;SDS011;14792;50.886;6.468;2023-10-31T03:48:45;3.00;;;1.60;;
27305;SDS011;14792;50.886;6.468;2023-10-31T03:51:46;2.42;;;1.60;;
27305;SDS011;14792;50.886;6.468;2023-10-31T03:54:48;5.75;;;1.57;;
27305;SDS011;14792;50.886;6.468;2023-10-31T03:57:49;1.98;;;1.27;;
27305;SDS011;14792;50.886;6.468;2023-10-31T04:00:51;4.28;;;1.52;;
27305;SDS011;14792;50.886;6.468;2023-10-31T04:03:53;2.52;;;1.50;;
27305;SDS011;14792;50.886;6.468;2023-10-31T04:06:54;3.47;;;1.32;;
27305;SDS011;14792;50.886;6.468;2023-10-31T04:09:56;4.22;;;1.60;;
27305;SDS011;14792;50.886;6.468;2023-10-31T04:12:57;4.87;;;1.77;;
27305;SDS011;14792;50.886;6.468;2023-10-31T04:15:59;2.42;;;1.60;;
27305;SDS011;14792;50.886;6.468;2023-10-31T04:19:01;3.20;;;2.02;;
27305;SDS011;14792;50.886;6.468;2023-10-31T04:22:02;5.15;;;1.85;;
27305;SDS011;14792;50.886;6.468;2023-10-31T04:25:04;2.80;;;1.52;;
27305;SDS011;14792;50.886;6.468;2023-10-31T04:28:05;2.92;;;2.00;;
27305;SDS011;14792;50.886;6.468;2023-10-31T04:31:07;5.05;;;1.80;;
27305;SDS011;14792;50.886;6.468;2023-10-31T04:34:09;3.30;;;1.90;;
27305;SDS011;14792;50.886;6.468;2023-10-31T04:37:10;2.85;;;1.90;;
27305;SDS011;14792;50.886;6.468;2023-10-31T04:40:12;2.08;;;1.85;;
27305;SDS011;14792;50.886;6.468;2023-10-31T04:43:13;3.08;;;1.50;;
27305;SDS011;14792;50.886;6.468;2023-10-31T04:46:16;3.55;;;1.80;;
27305;SDS011;14792;50.886;6.468;2023-10-31T04:49:17;1.87;;;1.70;;
27305;SDS011;14792;50.886;6.468;2023-10-31T04:52:19;2.72;;;2.22;;
27305;SDS011;14792;50.886;6.468;2023-10-31T04:55:20;4.70;;;2.00;;
27305;SDS011;14792;50.886;6.468;2023-10-31T04:58:22;3.20;;;2.27;;
27305;SDS011;14792;50.886;6.468;2023-10-31T05:01:24;4.53;;;2.08;;
27305;SDS011;14792;50.886;6.468;2023-10-31T05:04:25;4.20;;;2.10;;
27305;SDS011;14792;50.886;6.468;2023-10-31T05:07:27;3.75;;;2.42;;
27305;SDS011;14792;50.886;6.468;2023-10-31T05:10:28;5.95;;;2.30;;
27305;SDS011;14792;50.886;6.468;2023-10-31T05:13:30;3.90;;;2.08;;
27305;SDS011;14792;50.886;6.468;2023-10-31T05:16:32;2.98;;;2.10;;
27305;SDS011;14792;50.886;6.468;2023-10-31T05:19:33;5.67;;;2.17;;
27305;SDS011;14792;50.886;6.468;2023-10-31T05:22:36;5.53;;;2.02;;
27305;SDS011;14792;50.886;6.468;2023-10-31T05:25:36;3.10;;;2.08;;
27305;SDS011;14792;50.886;6.468;2023-10-31T05:28:38;2.75;;;1.90;;
27305;SDS011;14792;50.886;6.468;2023-10-31T05:31:39;3.12;;;2.30;;
27305;SDS011;14792;50.886;6.468;2023-10-31T05:34:41;4.03;;;2.30;;
27305;SDS011;14792;50.886;6.468;2023-10-31T05:37:43;6.37;;;2.05;;
27305;SDS011;14792;50.886;6.468;2023-10-31T05:40:44;4.03;;;2.40;;
27305;SDS011;14792;50.886;6.468;2023-10-31T05:43:46;3.75;;;2.12;;
27305;SDS011;14792;50.886;6.468;2023-10-31T05:46:47;3.75;;;2.90;;
27305;SDS011;14792;50.886;6.468;2023-10-31T05:49:49;4.30;;;2.60;;
27305;SDS011;14792;50.886;6.468;2023-10-31T05:52:51;5.17;;;3.27;;
27305;SDS011;14792;50.886;6.468;2023-10-31T05:55:52;4.03;;;3.10;;
27305;SDS011;14792;50.886;6.468;2023-10-31T05:58:54;3.87;;;2.72;;
27305;SDS011;14792;50.886;6.468;2023-10-31T06:01:55;4.22;;;2.52;;
27305;SDS011;14792;50.886;6.468;2023-10-31T06:04:57;3.58;;;2.72;;
27305;SDS011;14792;50.886;6.468;2023-10-31T06:07:59;3.25;;;2.65;;
27305;SDS011;14792;50.886;6.468;2023-10-31T06:11:00;4.70;;;3.08;;
27305;SDS011;14792;50.886;6.468;2023-10-31T06:14:02;5.65;;;3.00;;
27305;SDS011;14792;50.886;6.468;2023-10-31T06:17:03;4.58;;;2.85;;
27305;SDS011;14792;50.886;6.468;2023-10-31T06:20:08;4.33;;;2.83;;
27305;SDS011;14792;50.886;6.468;2023-10-31T06:23:09;5.70;;;3.17;;
27305;SDS011;14792;50.886;6.468;2023-10-31T06:26:11;6.33;;;3.85;;
27305;SDS011;14792;50.886;6.468;2023-10-31T06:29:12;4.70;;;3.70;;
27305;SDS011;14792;50.886;6.468;2023-10-31T06:32:14;4.20;;;3.58;;
27305;SDS011;14792;50.886;6.468;2023-10-31T06:35:15;6.12;;;4.47;;
27305;SDS011;14792;50.886;6.468;2023-10-31T06:38:17;5.05;;;4.08;;
27305;SDS011;14792;50.886;6.468;2023-10-31T06:41:19;6.37;;;4.10;;
27305;SDS011;14792;50.886;6.468;2023-10-31T06:44:20;4.62;;;3.98;;
27305;SDS011;14792;50.886;6.468;2023-10-31T06:47:22;5.15;;;4.60;;
27305;SDS011;14792;50.886;6.468;2023-10-31T06:50:24;7.40;;;4.62;;
27305;SDS011;14792;50.886;6.468;2023-10-31T06:53:25;5.15;;;4.17;;
27305;SDS011;14792;50.886;6.468;2023-10-31T06:56:26;7.05;;;4.47;;
27305;SDS011;14792;50.886;6.468;2023-10-31T06:59:28;5.65;;;4.37;;
27305;SDS011;14792;50.886;6.468;2023-10-31T07:02:30;5.67;;;4.35;;
27305;SDS011;14792;50.886;6.468;2023-10-31T07:05:31;5.15;;;3.75;;
27305;SDS011;14792;50.886;6.468;2023-10-31T07:08:33;6.60;;;3.52;;
27305;SDS011;14792;50.886;6.468;2023-10-31T07:11:34;6.90;;;4.00;;
27305;SDS011;14792;50.886;6.468;2023-10-31T07:14:36;4.95;;;3.75;;
27305;SDS011;14792;50.886;6.468;2023-10-31T07:17:38;5.22;;;3.42;;
27305;SDS011;14792;50.886;6.468;2023-10-31T07:20:39;7.12;;;3.92;;
27305;SDS011;14792;50.886;6.468;2023-10-31T07:23:41;5.42;;;3.67;;
27305;SDS011;14792;50.886;6.468;2023-10-31T07:26:42;5.58;;;3.58;;
27305;SDS011;14792;50.886;6.468;2023-10-31T07:29:44;6.33;;;3.67;;
27305;SDS011;14792;50.886;6.468;2023-10-31T07:32:46;7.50;;;3.70;;
27305;SDS011;14792;50.886;6.468;2023-10-31T07:35:47;9.50;;;4.15;;
27305;SDS011;14792;50.886;6.468;2023-10-31T07:38:49;9.93;;;4.70;;
27305;SDS011;14792;50.886;6.468;2023-10-31T07:41:51;8.05;;;4.15;;
27305;SDS011;14792;50.886;6.468;2023-10-31T07:44:52;7.95;;;4.15;;
27305;SDS011;14792;50.886;6.468;2023-10-31T07:47:54;6.22;;;4.17;;
27305;SDS011;14792;50.886;6.468;2023-10-31T07:50:55;6.55;;;4.20;;
27305;SDS011;14792;50.886;6.468;2023-10-31T07:53:57;7.72;;;4.10;;
27305;SDS011;14792;50.886;6.468;2023-10-31T07:56:59;7.90;;;4.40;;
27305;SDS011;14792;50.886;6.468;2023-10-31T08:00:00;8.48;;;4.03;;
27305;SDS011;14792;50.886;6.468;2023-10-31T08:03:02;7.15;;;4.33;;
27305;SDS011;14792;50.886;6.468;2023-10-31T08:06:05;7.87;;;4.20;;
27305;SDS011;14792;50.886;6.468;2023-10-31T08:09:05;6.72;;;4.30;;
27305;SDS011;14792;50.886;6.468;2023-10-31T08:12:07;5.75;;;4.25;;
27305;SDS011;14792;50.886;6.468;2023-10-31T08:15:08;9.90;;;4.60;;
27305;SDS011;14792;50.886;6.468;2023-10-31T08:18:10;7.95;;;3.58;;
27305;SDS011;14792;50.886;6.468;2023-10-31T08:21:11;8.20;;;4.00;;
27305;SDS011;14792;50.886;6.468;2023-10-31T08:24:13;7.42;;;3.60;;
27305;SDS011;14792;50.886;6.468;2023-10-31T08:27:14;5.47;;;3.70;;
27305;SDS011;14792;50.886;6.468;2023-10-31T08:30:16;8.03;;;4.22;;
27305;SDS011;14792;50.886;6.468;2023-10-31T08:33:18;6.25;;;3.77;;
27305;SDS011;14792;50.886;6.468;2023-10-31T08:36:19;5.50;;;4.15;;
27305;SDS011;14792;50.886;6.468;2023-10-31T08:39:21;4.92;;;3.80;;
27305;SDS011;14792;50.886;6.468;2023-10-31T08:42:22;6.25;;;4.08;;
27305;SDS011;14792;50.886;6.468;2023-10-31T08:45:24;6.33;;;3.80;;
27305;SDS011;14792;50.886;6.468;2023-10-31T08:48:26;9.30;;;3.67;;
27305;SDS011;14792;50.886;6.468;2023-10-31T08:51:27;6.33;;;3.02;;
27305;SDS011;14792;50.886;6.468;2023-10-31T08:54:29;5.28;;;3.00;;
27305;SDS011;14792;50.886;6.468;2023-10-31T08:57:30;3.72;;;2.95;;
27305;SDS011;14792;50.886;6.468;2023-10-31T09:00:32;3.83;;;2.60;;
27305;SDS011;14792;50.886;6.468;2023-10-31T09:03:34;5.28;;;2.30;;
27305;SDS011;14792;50.886;6.468;2023-10-31T09:06:35;4.65;;;2.00;;
27305;SDS011;14792;50.886;6.468;2023-10-31T09:09:37;4.58;;;2.40;;
27305;SDS011;14792;50.886;6.468;2023-10-31T09:12:38;6.58;;;2.52;;
27305;SDS011;14792;50.886;6.468;2023-10-31T09:15:40;3.12;;;1.95;;
27305;SDS011;14792;50.886;6.468;2023-10-31T09:18:41;5.12;;;2.37;;
27305;SDS011;14792;50.886;6.468;2023-10-31T09:21:43;6.50;;;2.15;;
27305;SDS011;14792;50.886;6.468;2023-10-31T09:24:45;4.40;;;2.00;;
27305;SDS011;14792;50.886;6.468;2023-10-31T09:27:46;6.62;;;2.22;;
27305;SDS011;14792;50.886;6.468;2023-10-31T09:30:48;4.22;;;1.87;;
27305;SDS011;14792;50.886;6.468;2023-10-31T09:33:49;3.65;;;1.70;;
27305;SDS011;14792;50.886;6.468;2023-10-31T09:36:51;4.42;;;1.85;;
27305;SDS011;14792;50.886;6.468;2023-10-31T09:39:53;3.52;;;1.95;;
27305;SDS011;14792;50.886;6.468;2023-10-31T09:42:54;3.95;;;1.80;;
27305;SDS011;14792;50.886;6.468;2023-10-31T09:45:56;5.20;;;1.80;;
27305;SDS011;14792;50.886;6.468;2023-10-31T09:48:57;4.80;;;1.70;;
27305;SDS011;14792;50.886;6.468;2023-10-31T09:51:59;9.10;;;1.98;;
27305;SDS011;14792;50.886;6.468;2023-10-31T09:55:00;3.15;;;1.42;;
27305;SDS011;14792;50.886;6.468;2023-10-31T09:58:02;3.77;;;1.20;;
27305;SDS011;14792;50.886;6.468;2023-10-31T10:01:04;2.52;;;1.10;;
27305;SDS011;14792;50.886;6.468;2023-10-31T10:04:05;1.95;;;1.10;;
27305;SDS011;14792;50.886;6.468;2023-10-31T10:07:07;3.00;;;1.00;;
27305;SDS011;14792;50.886;6.468;2023-10-31T10:10:11;3.70;;;0.93;;
27305;SDS011;14792;50.886;6.468;2023-10-31T10:13:12;3.67;;;1.02;;
27305;SDS011;14792;50.886;6.468;2023-10-31T10:16:27;1.75;;;0.95;;
27305;SDS011;14792;50.886;6.468;2023-10-31T10:19:19;2.60;;;1.15;;
27305;SDS011;14792;50.886;6.468;2023-10-31T10:22:20;2.42;;;0.80;;
27305;SDS011;14792;50.886;6.468;2023-10-31T10:25:22;1.65;;;0.70;;
27305;SDS011;14792;50.886;6.468;2023-10-31T10:28:24;3.20;;;1.00;;
27305;SDS011;14792;50.886;6.468;2023-10-31T10:31:27;4.60;;;1.17;;
27305;SDS011;14792;50.886;6.468;2023-10-31T10:34:29;3.75;;;1.10;;
27305;SDS011;14792;50.886;6.468;2023-10-31T10:37:31;2.22;;;1.12;;
27305;SDS011;14792;50.886;6.468;2023-10-31T10:40:32;2.72;;;1.27;;
27305;SDS011;14792;50.886;6.468;2023-10-31T10:43:35;7.20;;;1.30;;
27305;SDS011;14792;50.886;6.468;2023-10-31T10:46:36;3.35;;;1.47;;
27305;SDS011;14792;50.886;6.468;2023-10-31T10:49:37;2.20;;;1.17;;
27305;SDS011;14792;50.886;6.468;2023-10-31T10:52:41;4.55;;;1.00;;
27305;SDS011;14792;50.886;6.468;2023-10-31T10:55:43;3.58;;;1.30;;
27305;SDS011;14792;50.886;6.468;2023-10-31T10:58:49;3.92;;;1.02;;
27305;SDS011;14792;50.886;6.468;2023-10-31T11:01:49;5.45;;;1.30;;
27305;SDS011;14792;50.886;6.468;2023-10-31T11:04:50;2.12;;;1.00;;
27305;SDS011;14792;50.886;6.468;2023-10-31T11:07:52;2.47;;;1.05;;
27305;SDS011;14792;50.886;6.468;2023-10-31T11:10:53;4.67;;;1.20;;
27305;SDS011;14792;50.886;6.468;2023-10-31T11:13:55;3.40;;;1.20;;
27305;SDS011;14792;50.886;6.468;2023-10-31T11:16:58;3.80;;;1.12;;
27305;SDS011;14792;50.886;6.468;2023-10-31T11:19:58;2.80;;;1.15;;
27305;SDS011;14792;50.886;6.468;2023-10-31T11:23:00;2.75;;;1.10;;
27305;SDS011;14792;50.886;6.468;2023-10-31T11:26:01;4.65;;;1.20;;
27305;SDS011;14792;50.886;6.468;2023-10-31T11:29:06;4.33;;;1.20;;
27305;SDS011;14792;50.886;6.468;2023-10-31T11:32:10;3.67;;;1.25;;
27305;SDS011;14792;50.886;6.468;2023-10-31T11:35:12;2.08;;;1.10;;
27305;SDS011;14792;50.886;6.468;2023-10-31T11:38:13;4.53;;;1.30;;
27305;SDS011;14792;50.886;6.468;2023-10-31T11:41:15;5.60;;;1.60;;
27305;SDS011;14792;50.886;6.468;2023-10-31T11:44:18;5.05;;;1.87;;
27305;SDS011;14792;50.886;6.468;2023-10-31T11:47:19;1.98;;;0.90;;
27305;SDS011;14792;50.886;6.468;2023-10-31T11:50:21;5.80;;;1.30;;
27305;SDS011;14792;50.886;6.468;2023-10-31T11:53:22;5.28;;;1.35;;
27305;SDS011;14792;50.886;6.468;2023-10-31T11:56:24;6.20;;;1.17;;
27305;SDS011;14792;50.886;6.468;2023-10-31T11:59:26;8.08;;;1.30;;
27305;SDS011;14792;50.886;6.468;2023-10-31T12:02:27;2.65;;;0.93;;
27305;SDS011;14792;50.886;6.468;2023-10-31T12:05:29;5.08;;;1.12;;
27305;SDS011;14792;50.886;6.468;2023-10-31T12:08:34;4.35;;;1.05;;
27305;SDS011;14792;50.886;6.468;2023-10-31T12:11:37;3.83;;;1.20;;
27305;SDS011;14792;50.886;6.468;2023-10-31T12:14:36;7.85;;;1.50;;
27305;SDS011;14792;50.886;6.468;2023-10-31T12:17:38;6.10;;;1.22;;
27305;SDS011;14792;50.886;6.468;2023-10-31T12:20:49;6.00;;;1.50;;
27305;SDS011;14792;50.886;6.468;2023-10-31T12:23:50;4.25;;;1.40;;
27305;SDS011;14792;50.886;6.468;2023-10-31T12:26:51;7.28;;;1.52;;
27305;SDS011;14792;50.886;6.468;2023-10-31T12:30:02;9.50;;;1.90;;
27305;SDS011;14792;50.886;6.468;2023-10-31T12:33:04;6.53;;;1.42;;
27305;SDS011;14792;50.886;6.468;2023-10-31T12:36:05;5.80;;;1.42;;
27305;SDS011;14792;50.886;6.468;2023-10-31T12:39:07;6.62;;;1.57;;
27305;SDS011;14792;50.886;6.468;2023-10-31T12:42:09;8.18;;;1.25;;
27305;SDS011;14792;50.886;6.468;2023-10-31T12:45:11;7.30;;;1.35;;
27305;SDS011;14792;50.886;6.468;2023-10-31T12:48:14;5.05;;;1.40;;
27305;SDS011;14792;50.886;6.468;2023-10-31T12:51:20;7.58;;;1.60;;
27305;SDS011;14792;50.886;6.468;2023-10-31T12:54:30;7.37;;;1.47;;
27305;SDS011;14792;50.886;6.468;2023-10-31T12:57:34;10.88;;;1.50;;
27305;SDS011;14792;50.886;6.468;2023-10-31T13:00:34;5.67;;;1.15;;
27305;SDS011;14792;50.886;6.468;2023-10-31T13:03:47;5.33;;;1.32;;
27305;SDS011;14792;50.886;6.468;2023-10-31T13:06:37;4.37;;;1.32;;
27305;SDS011;14792;50.886;6.468;2023-10-31T13:09:38;6.03;;;1.47;;
27305;SDS011;14792;50.886;6.468;2023-10-31T13:12:40;5.08;;;1.80;;
27305;SDS011;14792;50.886;6.468;2023-10-31T13:15:41;4.15;;;1.07;;
27305;SDS011;14792;50.886;6.468;2023-10-31T13:18:43;5.20;;;1.60;;
27305;SDS011;14792;50.886;6.468;2023-10-31T13:21:44;7.22;;;1.42;;
27305;SDS011;14792;50.886;6.468;2023-10-31T13:24:46;6.92;;;1.85;;
27305;SDS011;14792;50.886;6.468;2023-10-31T13:27:48;8.25;;;1.85;;
27305;SDS011;14792;50.886;6.468;2023-10-31T13:30:49;5.20;;;1.62;;
27305;SDS011;14792;50.886;6.468;2023-10-31T13:33:51;4.28;;;1.30;;
27305;SDS011;14792;50.886;6.468;2023-10-31T13:36:52;5.83;;;1.35;;
27305;SDS011;14792;50.886;6.468;2023-10-31T13:39:54;4.17;;;1.30;;
27305;SDS011;14792;50.886;6.468;2023-10-31T13:42:56;5.75;;;1.55;;
27305;SDS011;14792;50.886;6.468;2023-10-31T13:45:57;5.92;;;1.12;;
27305;SDS011;14792;50.886;6.468;2023-10-31T13:48:59;2.98;;;0.88;;
27305;SDS011;14792;50.886;6.468;2023-10-31T13:52:00;3.80;;;1.22;;
27305;SDS011;14792;50.886;6.468;2023-10-31T13:55:02;7.72;;;1.30;;
27305;SDS011;14792;50.886;6.468;2023-10-31T13:58:03;7.25;;;1.40;;
27305;SDS011;14792;50.886;6.468;2023-10-31T14:01:05;7.80;;;1.57;;
27305;SDS011;14792;50.886;6.468;2023-10-31T14:04:07;6.67;;;1.57;;
27305;SDS011;14792;50.886;6.468;2023-10-31T14:07:08;6.10;;;1.32;;
27305;SDS011;14792;50.886;6.468;2023-10-31T14:10:10;6.30;;;1.22;;
27305;SDS011;14792;50.886;6.468;2023-10-31T14:13:11;4.05;;;1.30;;
27305;SDS011;14792;50.886;6.468;2023-10-31T14:16:13;8.98;;;1.70;;
27305;SDS011;14792;50.886;6.468;2023-10-31T14:19:15;6.12;;;1.65;;
27305;SDS011;14792;50.886;6.468;2023-10-31T14:22:16;4.85;;;1.50;;
27305;SDS011;14792;50.886;6.468;2023-10-31T14:25:18;4.87;;;1.72;;
27305;SDS011;14792;50.886;6.468;2023-10-31T14:28:19;5.37;;;1.70;;
27305;SDS011;14792;50.886;6.468;2023-10-31T14:31:21;8.93;;;1.55;;
27305;SDS011;14792;50.886;6.468;2023-10-31T14:34:23;5.10;;;1.87;;
27305;SDS011;14792;50.886;6.468;2023-10-31T14:37:24;6.62;;;1.45;;
27305;SDS011;14792;50.886;6.468;2023-10-31T14:40:26;6.35;;;1.42;;
27305;SDS011;14792;50.886;6.468;2023-10-31T14:43:27;6.30;;;1.60;;
27305;SDS011;14792;50.886;6.468;2023-10-31T14:46:29;6.28;;;1.40;;
27305;SDS011;14792;50.886;6.468;2023-10-31T14:49:30;5.47;;;1.32;;
27305;SDS011;14792;50.886;6.468;2023-10-31T14:52:32;4.97;;;1.50;;
27305;SDS011;14792;50.886;6.468;2023-10-31T14:55:34;4.35;;;1.50;;
27305;SDS011;14792;50.886;6.468;2023-10-31T14:58:35;3.95;;;1.70;;
27305;SDS011;14792;50.886;6.468;2023-10-31T15:01:37;5.60;;;1.20;;
27305;SDS011;14792;50.886;6.468;2023-10-31T15:04:38;4.72;;;1.40;;
27305;SDS011;14792;50.886;6.468;2023-10-31T15:07:40;7.35;;;1.80;;
27305;SDS011;14792;50.886;6.468;2023-10-31T15:10:42;5.03;;;1.30;;
27305;SDS011;14792;50.886;6.468;2023-10-31T15:13:43;6.80;;;1.72;;
27305;SDS011;14792;50.886;6.468;2023-10-31T15:16:45;5.22;;;1.50;;
27305;SDS011;14792;50.886;6.468;2023-10-31T15:19:46;5.53;;;1.92;;
27305;SDS011;14792;50.886;6.468;2023-10-31T15:22:48;7.47;;;2.02;;
27305;SDS011;14792;50.886;6.468;2023-10-31T15:25:50;6.80;;;1.77;;
27305;SDS011;14792;50.886;6.468;2023-10-31T15:28:51;9.18;;;2.02;;
27305;SDS011;14792;50.886;6.468;2023-10-31T15:31:53;6.83;;;2.33;;
27305;SDS011;14792;50.886;6.468;2023-10-31T15:34:54;9.38;;;2.58;;
27305;SDS011;14792;50.886;6.468;2023-10-31T15:37:56;9.38;;;2.12;;
27305;SDS011;14792;50.886;6.468;2023-10-31T15:40:57;8.60;;;2.77;;
27305;SDS011;14792;50.886;6.468;2023-10-31T15:43:59;7.35;;;2.58;;
27305;SDS011;14792;50.886;6.468;2023-10-31T15:47:01;7.22;;;2.70;;
27305;SDS011;14792;50.886;6.468;2023-10-31T15:50:02;6.05;;;2.62;;
27305;SDS011;14792;50.886;6.468;2023-10-31T15:53:04;6.85;;;3.08;;
27305;SDS011;14792;50.886;6.468;2023-10-31T15:56:05;8.40;;;3.55;;
27305;SDS011;14792;50.886;6.468;2023-10-31T15:59:07;7.67;;;2.72;;
27305;SDS011;14792;50.886;6.468;2023-10-31T16:02:09;9.33;;;2.70;;
27305;SDS011;14792;50.886;6.468;2023-10-31T16:05:10;5.92;;;2.85;;
27305;SDS011;14792;50.886;6.468;2023-10-31T16:08:12;6.42;;;3.30;;
27305;SDS011;14792;50.886;6.468;2023-10-31T16:11:13;6.30;;;2.95;;
27305;SDS011;14792;50.886;6.468;2023-10-31T16:14:15;6.72;;;2.72;;
27305;SDS011;14792;50.886;6.468;2023-10-31T16:17:16;12.60;;;3.30;;
27305;SDS011;14792;50.886;6.468;2023-10-31T16:20:18;5.70;;;2.10;;
27305;SDS011;14792;50.886;6.468;2023-10-31T16:23:20;5.35;;;2.20;;
27305;SDS011;14792;50.886;6.468;2023-10-31T16:26:21;11.63;;;3.22;;
27305;SDS011;14792;50.886;6.468;2023-10-31T16:29:23;6.78;;;2.33;;
27305;SDS011;14792;50.886;6.468;2023-10-31T16:32:24;6.58;;;2.62;;
27305;SDS011;14792;50.886;6.468;2023-10-31T16:35:26;6.10;;;3.10;;
27305;SDS011;14792;50.886;6.468;2023-10-31T16:38:28;9.63;;;3.17;;
27305;SDS011;14792;50.886;6.468;2023-10-31T16:41:29;6.35;;;2.27;;
27305;SDS011;14792;50.886;6.468;2023-10-31T16:44:31;5.83;;;2.12;;
27305;SDS011;14792;50.886;6.468;2023-10-31T16:47:32;1.98;;;1.52;;
27305;SDS011;14792;50.886;6.468;2023-10-31T16:50:34;4.42;;;2.27;;
27305;SDS011;14792;50.886;6.468;2023-10-31T16:53:37;5.67;;;2.05;;
27305;SDS011;14792;50.886;6.468;2023-10-31T16:56:37;5.00;;;2.00;;
27305;SDS011;14792;50.886;6.468;2023-10-31T16:59:39;8.70;;;2.62;;
27305;SDS011;14792;50.886;6.468;2023-10-31T17:02:40;5.35;;;1.85;;
27305;SDS011;14792;50.886;6.468;2023-10-31T17:05:42;4.00;;;1.75;;
27305;SDS011;14792;50.886;6.468;2023-10-31T17:08:43;4.33;;;1.55;;
27305;SDS011;14792;50.886;6.468;2023-10-31T17:11:45;4.60;;;1.80;;
27305;SDS011;14792;50.886;6.468;2023-10-31T17:14:47;3.98;;;1.67;;
27305;SDS011;14792;50.886;6.468;2023-10-31T17:17:48;3.40;;;1.45;;
27305;SDS011;14792;50.886;6.468;2023-10-31T17:20:50;3.60;;;1.52;;
27305;SDS011;14792;50.886;6.468;2023-10-31T17:23:51;3.17;;;1.90;;
27305;SDS011;14792;50.886;6.468;2023-10-31T17:26:53;5.55;;;1.40;;
27305;SDS011;14792;50.886;6.468;2023-10-31T17:29:55;4.58;;;1.72;;
27305;SDS011;14792;50.886;6.468;2023-10-31T17:32:56;5.55;;;1.60;;
27305;SDS011;14792;50.886;6.468;2023-10-31T17:35:58;4.83;;;1.50;;
27305;SDS011;14792;50.886;6.468;2023-10-31T17:38:59;4.72;;;1.57;;
27305;SDS011;14792;50.886;6.468;2023-10-31T17:42:01;5.42;;;1.87;;
27305;SDS011;14792;50.886;6.468;2023-10-31T17:45:02;6.40;;;1.80;;
27305;SDS011;14792;50.886;6.468;2023-10-31T17:48:04;4.65;;;1.52;;
27305;SDS011;14792;50.886;6.468;2023-10-31T17:51:06;3.62;;;1.60;;
27305;SDS011;14792;50.886;6.468;2023-10-31T17:54:07;6.62;;;1.80;;
27305;SDS011;14792;50.886;6.468;2023-10-31T17:57:09;7.03;;;2.08;;
27305;SDS011;14792;50.886;6.468;2023-10-31T18:00:10;3.40;;;1.47;;
27305;SDS011;14792;50.886;6.468;2023-10-31T18:03:12;1.92;;;1.27;;
27305;SDS011;14792;50.886;6.468;2023-10-31T18:06:14;6.83;;;1.80;;
27305;SDS011;14792;50.886;6.468;2023-10-31T18:09:15;2.92;;;1.15;;
27305;SDS011;14792;50.886;6.468;2023-10-31T18:12:17;10.23;;;2.42;;
27305;SDS011;14792;50.886;6.468;2023-10-31T18:15:18;6.72;;;2.42;;